Time;durP1;ratioP1;P1;durP2;ratioP2;P2;SDS_P1;SDS_P2;PMS_P1;PMS_P2;Temp;Humidity;BMP_temperature;BMP_pressure;BME280_temperature;BME280_humidity;BME280_pressure;Samples;Min_cycle;Max_cycle;Signal;HPM_P1;HPM_P2
2021/06/23 03:41:16;;;;;;;;;28.50;25.75;;;;;14.79;96.05;101130.94;4874667;29;45710;-81
2021/06/23 03:43:45;;;;;;;;;27.25;24.00;;;;;14.60;96.07;101105.16;4876272;29;46037;-82
2021/06/23 03:46:10;;;;;;;;;29.00;27.75;;;;;14.43;95.74;101071.38;4876584;29;45694;-83
2021/06/23 03:48:36;;;;;;;;;27.50;25.00;;;;;14.87;96.21;101144.31;4878033;29;46169;-82
2021/06/23 04:04:28;;;;;;;;;27.50;27.00;;;;;14.85;95.97;101144.44;4880710;29;46223;-81
2021/06/23 04:06:53;;;;;;;;;28.75;24.75;;;;;14.85;96.02;101159.41;4863958;29;46421;-83
2021/06/23 04:09:19;;;;;;;;;31.25;27.75;;;;;14.76;95.82;101139.06;4881923;29;45733;-82
2021/06/23 04:11:44;;;;;;;;;32.25;27.25;;;;;14.81;96.01;101139.53;4883783;29;45644;-82
2021/06/23 04:14:10;;;;;;;;;18.25;16.00;;;;;14.85;96.10;101154.16;4885212;29;45532;-81
2021/06/23 04:19:57;;;;;;;;;27.50;25.75;;;;;14.83;95.98;101171.91;4881611;29;45572;-80
2021/06/23 04:22:25;;;;;;;;;28.50;26.75;;;;;14.86;95.95;101171.66;4878220;29;45703;-81
2021/06/23 04:24:52;;;;;;;;;27.25;25.50;;;;;14.73;95.89;101149.88;4877895;29;46689;-82
2021/06/23 04:27:19;;;;;;;;;28.75;27.00;;;;;14.84;96.05;101173.59;4878065;29;45573;-80
2021/06/23 04:29:44;;;;;;;;;30.00;26.25;;;;;14.82;96.02;101162.31;4879778;29;45850;-80
2021/06/23 04:32:10;;;;;;;;;32.50;28.75;;;;;14.81;95.78;101166.75;4880501;29;45651;-81
2021/06/23 04:34:35;;;;;;;;;29.75;25.75;;;;;14.68;96.22;101152.88;4863373;29;47988;-80
2021/06/23 04:37:00;;;;;;;;;29.50;26.00;;;;;14.77;95.85;101167.13;4880666;29;45544;-81
2021/06/23 04:39:26;;;;;;;;;28.00;26.25;;;;;14.83;96.05;101185.94;4880671;29;45903;-81
2021/06/23 04:41:51;;;;;;;;;32.25;27.75;;;;;14.81;95.97;101179.94;4879588;29;46458;-81
2021/06/23 04:44:16;;;;;;;;;25.00;23.00;;;;;14.85;96.24;101185.81;4880311;29;45817;-81
2021/06/23 04:50:05;;;;;;;;;25.50;22.25;;;;;14.72;95.95;101166.66;4879811;29;45851;-81
2021/06/23 04:52:31;;;;;;;;;27.00;24.00;;;;;14.83;96.34;101185.94;4880400;29;46633;-81
2021/06/23 04:54:56;;;;;;;;;22.00;20.75;;;;;14.67;96.03;101152.03;4880311;29;46078;-81
2021/06/23 04:57:21;;;;;;;;;24.75;21.25;;;;;14.68;95.85;101152.88;4880410;29;45610;-81
2021/06/23 04:59:48;;;;;;;;;27.25;25.00;;;;;14.87;96.23;101179.47;4879666;29;45623;-81
2021/06/23 05:02:14;;;;;;;;;24.25;19.50;;;;;14.92;95.84;101187.84;4880051;29;47032;-81
2021/06/23 05:04:40;;;;;;;;;20.00;18.50;;;;;14.85;96.30;101172.63;4879954;29;46288;-81
2021/06/23 05:07:07;;;;;;;;;22.75;21.50;;;;;14.74;96.06;101162.91;4880138;29;45793;-80
2021/06/23 05:09:33;;;;;;;;;25.75;23.75;;;;;14.92;95.92;101197.56;4879886;29;45774;-81
2021/06/23 05:11:59;;;;;;;;;23.75;22.25;;;;;14.91;95.93;101193.22;4880031;29;45665;-80
2021/06/23 05:14:24;;;;;;;;;28.75;21.25;;;;;14.90;96.14;101194.22;4880263;29;45666;-81
2021/06/23 05:20:12;;;;;;;;;24.75;22.25;;;;;14.79;95.68;101184.50;4879748;29;45565;-83
2021/06/23 05:22:37;;;;;;;;;28.00;24.00;;;;;14.77;95.97;101177.69;4880038;29;46697;-81
2021/06/23 05:25:03;;;;;;;;;24.50;24.50;;;;;14.88;95.98;101201.41;4879805;29;45802;-82
2021/06/23 05:27:29;;;;;;;;;28.75;25.50;;;;;14.63;96.05;101160.28;4879855;29;45829;-81
2021/06/23 05:29:55;;;;;;;;;29.25;27.25;;;;;14.79;96.02;101195.03;4879992;29;45532;-84
2021/06/23 05:32:20;;;;;;;;;29.75;24.75;;;;;14.68;96.00;101180.06;4879055;29;48664;-81
2021/06/23 05:34:45;;;;;;;;;31.25;28.00;;;;;14.47;96.13;101134.28;4879068;29;46358;-81
2021/06/23 05:37:11;;;;;;;;;28.75;23.75;;;;;14.83;95.96;101209.69;4880706;29;45279;-83
2021/06/23 05:39:36;;;;;;;;;27.00;23.50;;;;;14.80;96.10;101202.00;4879433;29;45795;-82
2021/06/23 05:42:02;;;;;;;;;31.25;29.25;;;;;14.64;95.97;101183.91;4861351;29;47319;-83
2021/06/23 05:44:28;;;;;;;;;26.75;24.75;;;;;14.78;95.93;101198.66;4862955;29;47016;-82
2021/06/23 05:50:15;;;;;;;;;32.25;28.75;;;;;14.85;96.20;101209.53;4879859;29;45715;-81
2021/06/23 05:52:41;;;;;;;;;30.00;24.50;;;;;14.76;95.87;101210.28;4879851;29;45730;-81
2021/06/23 05:55:07;;;;;;;;;28.25;23.50;;;;;14.62;96.02;101177.94;4879887;29;45735;-82
2021/06/23 05:57:32;;;;;;;;;28.00;26.00;;;;;14.61;96.13;101176.25;4879553;29;46118;-80
2021/06/23 05:59:58;;;;;;;;;30.50;29.50;;;;;14.84;95.95;101213.16;4879450;29;45567;-77
2021/06/23 06:05:46;;;;;;;;;29.25;27.75;;;;;14.88;95.97;101218.06;4881497;29;46206;-80
2021/06/23 06:08:12;;;;;;;;;34.00;29.75;;;;;14.90;95.95;101213.50;4885648;29;45667;-81
2021/06/23 06:10:37;;;;;;;;;34.00;25.50;;;;;14.89;96.22;101229.47;4886392;29;45791;-79
2021/06/23 06:13:04;;;;;;;;;9.50;7.25;;;;;14.88;95.96;101226.00;4885840;29;46562;-81
2021/06/23 06:15:30;;;;;;;;;34.75;29.25;;;;;14.88;96.28;101233.06;4884919;29;45541;-81
2021/06/23 06:18:03;;;;;;;;;30.25;26.75;;;;;14.87;96.05;101234.03;4880837;29;45668;-82
2021/06/23 06:20:29;;;;;;;;;27.00;24.25;;;;;14.66;95.91;101200.47;4879347;29;45625;-77
2021/06/23 06:22:54;;;;;;;;;29.75;27.75;;;;;14.86;96.28;101232.34;4878802;29;45550;-77
2021/06/23 06:25:20;;;;;;;;;28.50;27.50;;;;;14.81;96.15;101227.44;4878679;29;45738;-76
2021/06/23 06:27:45;;;;;;;;;28.00;26.25;;;;;14.84;95.87;101242.19;4879199;29;45638;-77
2021/06/23 06:30:11;;;;;;;;;26.00;23.75;;;;;14.90;96.19;101254.91;4879183;29;45524;-78
2021/06/23 06:35:58;;;;;;;;;22.25;22.25;;;;;14.95;96.23;101253.56;4878458;29;46232;-78
2021/06/23 06:38:24;;;;;;;;;31.00;27.50;;;;;14.97;95.80;101246.38;4878611;29;45663;-77
2021/06/23 06:40:49;;;;;;;;;29.75;28.50;;;;;15.01;96.31;101261.00;4878762;29;45636;-78
2021/06/23 06:43:15;;;;;;;;;32.75;29.75;;;;;15.00;96.01;101247.94;4878645;29;45596;-81
2021/06/23 06:45:40;;;;;;;;;33.00;29.25;;;;;15.08;95.81;101256.06;4878625;29;46095;-81
2021/06/23 06:48:07;;;;;;;;;34.00;29.75;;;;;14.98;96.21;101237.50;4877417;29;45648;-80
2021/06/23 06:50:32;;;;;;;;;34.75;28.25;;;;;15.09;95.68;101261.22;4877762;29;45746;-80
2021/06/23 06:52:57;;;;;;;;;30.50;28.50;;;;;15.09;96.17;101263.88;4877701;29;46779;-79
2021/06/23 06:55:23;;;;;;;;;30.75;26.00;;;;;15.08;96.04;101262.19;4878418;29;45630;-80
2021/06/23 06:57:50;;;;;;;;;31.25;30.50;;;;;14.93;96.05;101237.03;4879033;29;45744;-80
2021/06/23 07:00:17;;;;;;;;;34.50;31.50;;;;;15.10;95.86;101267.34;4878499;29;45731;-81
2021/06/23 07:06:04;;;;;;;;;29.00;27.00;;;;;14.95;96.13;101261.47;4878197;29;46197;-78
2021/06/23 07:08:29;;;;;;;;;31.75;30.00;;;;;15.00;95.95;101261.13;4878733;29;45686;-77
2021/06/23 07:10:55;;;;;;;;;32.25;29.50;;;;;14.87;96.24;101252.50;4878978;29;45892;-77
2021/06/23 07:13:20;;;;;;;;;33.25;30.00;;;;;14.91;96.24;101251.28;4879226;29;45761;-78
2021/06/23 07:15:46;;;;;;;;;30.75;27.75;;;;;14.83;96.11;101240.50;4878396;29;45722;-78
2021/06/23 07:18:11;;;;;;;;;31.50;29.00;;;;;14.91;96.24;101265.31;4878533;29;45702;-77
2021/06/23 07:20:36;;;;;;;;;32.25;28.75;;;;;14.92;95.93;101274.06;4878427;29;45687;-77
2021/06/23 07:23:02;;;;;;;;;28.00;27.00;;;;;14.94;95.53;101278.28;4878247;29;45705;-78
2021/06/23 07:25:28;;;;;;;;;31.50;29.00;;;;;14.85;95.95;101265.78;4879124;29;45786;-78
2021/06/23 07:27:53;;;;;;;;;27.00;25.25;;;;;14.89;96.16;101269.06;4878855;29;45591;-78
2021/06/23 07:30:19;;;;;;;;;29.00;26.25;;;;;14.94;96.12;101278.28;4879368;29;46289;-78
2021/06/23 07:38:52;;;;;;;;;28.00;25.50;;;;;14.82;96.08;101281.03;4879274;29;46018;-79
2021/06/23 07:41:17;;;;;;;;;25.25;23.50;;;;;14.82;96.08;101281.88;4878573;29;45769;-80
2021/06/23 07:43:42;;;;;;;;;30.00;27.50;;;;;14.83;96.19;101280.06;4878777;29;46278;-78
2021/06/23 07:46:09;;;;;;;;;29.50;26.50;;;;;14.78;95.95;101280.44;4877673;29;45874;-76
2021/06/23 07:48:37;;;;;;;;;23.50;23.00;;;;;14.85;96.11;101293.97;4878857;29;45611;-78
2021/06/23 07:51:13;;;;;;;;;27.25;25.50;;;;;14.82;96.25;101291.59;4878352;29;45759;-77
2021/06/23 07:56:25;;;;;;;;;28.25;26.50;;;;;14.86;95.81;101293.88;4878819;29;45874;-76
2021/06/23 08:12:16;;;;;;;;;21.75;20.75;;;;;14.90;95.81;101308.47;4883993;29;45704;-78
2021/06/23 08:14:41;;;;;;;;;26.25;24.00;;;;;14.88;95.79;101291.13;4883123;29;45723;-78
2021/06/23 08:17:07;;;;;;;;;30.00;25.00;;;;;14.93;96.14;101296.88;4881535;29;47258;-79
2021/06/23 08:19:33;;;;;;;;;24.00;23.75;;;;;14.98;95.68;101298.19;4881829;29;45604;-76
2021/06/23 08:21:58;;;;;;;;;24.25;23.25;;;;;14.93;95.90;101297.72;4881127;29;45897;-77
2021/06/23 08:24:24;;;;;;;;;23.75;22.75;;;;;15.01;95.90;101291.81;4864099;29;46437;-77
2021/06/23 08:26:49;;;;;;;;;24.75;22.00;;;;;15.02;95.84;101299.63;4881093;29;45659;-78
2021/06/23 08:29:15;;;;;;;;;27.00;23.50;;;;;15.03;95.84;101295.19;4880835;29;45814;-78
2021/06/23 08:31:40;;;;;;;;;27.50;25.00;;;;;15.03;95.69;101292.53;4880267;29;45938;-77
2021/06/23 08:34:05;;;;;;;;;30.25;29.25;;;;;15.09;95.99;101298.19;4880605;29;46254;-77
2021/06/23 08:36:31;;;;;;;;;24.25;22.75;;;;;15.04;96.04;101283.66;4880504;29;46817;-76
2021/06/23 08:38:56;;;;;;;;;32.75;28.00;;;;;15.07;96.12;101293.97;4880274;29;45544;-80
2021/06/23 08:41:29;;;;;;;;;27.25;26.00;;;;;15.12;95.99;101297.09;4847615;29;45759;-77
2021/06/23 08:43:57;;;;;;;;;26.75;23.25;;;;;15.07;95.91;101283.41;4863171;29;47563;-77
2021/06/23 08:46:24;;;;;;;;;30.25;25.25;;;;;15.18;96.11;101295.75;4863031;29;47553;-77
2021/06/23 08:48:50;;;;;;;;;25.25;24.75;;;;;15.17;96.13;101283.56;4880543;29;45934;-78
2021/06/23 08:51:15;;;;;;;;;27.75;26.00;;;;;15.13;95.77;101275.84;4880166;29;45683;-75
2021/06/23 08:53:41;;;;;;;;;28.25;25.50;;;;;15.24;95.89;101292.63;4862736;29;46395;-76
2021/06/23 08:56:07;;;;;;;;;27.00;24.00;;;;;15.24;95.99;101295.28;4863198;29;47957;-78
2021/06/23 08:58:33;;;;;;;;;27.25;24.75;;;;;15.27;95.80;101290.63;4863378;29;45766;-77
2021/06/23 09:01:00;;;;;;;;;25.25;23.00;;;;;15.30;95.75;101293.00;4880161;29;45959;-78
2021/06/23 09:06:51;;;;;;;;;28.50;27.00;;;;;15.32;95.91;101300.81;4879682;29;45857;-77
2021/06/23 09:09:26;;;;;;;;;24.75;24.75;;;;;15.33;95.88;101297.22;4879890;29;45835;-78
2021/06/23 09:11:57;;;;;;;;;26.75;23.75;;;;;15.32;96.02;101293.72;4879943;29;45776;-77
2021/06/23 09:14:32;;;;;;;;;22.50;22.25;;;;;15.35;95.72;101295.25;4879340;29;45750;-76
2021/06/23 09:17:17;;;;;;;;;25.75;24.00;;;;;15.40;95.97;101301.00;4880203;29;46101;-76
2021/06/23 09:19:46;;;;;;;;;25.50;22.25;;;;;15.35;95.94;101293.47;4879847;29;45692;-76
2021/06/23 09:22:36;;;;;;;;;28.25;24.00;;;;;15.44;95.58;101297.16;4880058;29;46167;-79
2021/06/23 09:25:23;;;;;;;;;27.00;25.25;;;;;15.44;96.07;101295.34;4879458;29;47419;-75
2021/06/23 09:27:55;;;;;;;;;26.25;26.00;;;;;15.43;95.68;101299.00;4879915;29;46759;-78
2021/06/23 09:30:50;;;;;;;;;26.25;24.75;;;;;15.48;95.77;101309.19;4880063;29;45612;-78
2021/06/23 09:33:16;;;;;;;;;31.00;25.75;;;;;15.52;95.92;101311.47;4821410;29;45715;-77
2021/06/23 09:35:47;;;;;;;;;26.00;25.25;;;;;15.56;96.10;101308.56;4821434;29;46355;-78
2021/06/23 09:38:37;;;;;;;;;25.50;22.75;;;;;15.57;95.76;101295.25;4821945;29;47188;-78
2021/06/23 09:41:35;;;;;;;;;25.75;23.25;;;;;15.61;95.86;101301.13;4806967;29;45856;-78
2021/06/23 09:44:10;;;;;;;;;28.25;24.00;;;;;15.63;96.02;101301.84;4815380;29;45671;-80
2021/06/23 09:49:45;;;;;;;;;24.25;22.75;;;;;15.62;95.80;101302.78;4821020;29;46125;-74
2021/06/23 09:52:13;;;;;;;;;26.75;24.00;;;;;15.64;95.83;101292.97;4820898;29;45966;-76
2021/06/23 09:54:50;;;;;;;;;25.75;22.25;;;;;15.71;96.08;101294.97;4820806;29;46018;-75
2021/06/23 09:57:17;;;;;;;;;25.00;22.75;;;;;15.73;95.71;101298.31;4821037;29;46882;-75
2021/06/23 09:59:47;;;;;;;;;27.50;24.25;;;;;15.83;95.82;101301.03;4820953;29;47258;-77
2021/06/23 10:05:37;;;;;;;;;28.50;25.75;;;;;15.88;95.82;101299.72;4821448;29;45708;-76
2021/06/23 10:08:03;;;;;;;;;25.00;24.25;;;;;15.94;95.73;101309.78;4824224;29;46612;-76
2021/06/23 10:10:43;;;;;;;;;26.75;26.50;;;;;15.91;95.77;101304.75;4870849;29;46109;-74
2021/06/23 10:13:09;;;;;;;;;30.00;23.50;;;;;15.96;95.67;101304.38;4881220;29;45460;-75
2021/06/23 10:15:36;;;;;;;;;27.25;24.25;;;;;16.00;95.71;101304.94;4881942;29;45847;-79
2021/06/23 10:21:23;;;;;;;;;27.25;25.50;;;;;16.04;95.77;101314.28;4878777;29;46433;-78
2021/06/23 10:23:49;;;;;;;;;29.25;26.75;;;;;16.05;95.62;101308.06;4878501;29;45536;-76
2021/06/23 10:26:17;;;;;;;;;26.75;24.75;;;;;16.03;95.88;101304.72;4878285;29;45842;-74
2021/06/23 10:28:47;;;;;;;;;28.25;27.50;;;;;16.05;96.11;101315.97;4878490;29;47658;-78
2021/06/23 10:31:14;;;;;;;;;28.00;27.00;;;;;16.09;95.84;101325.31;4878140;29;46440;-77
2021/06/23 10:37:01;;;;;;;;;28.00;27.75;;;;;16.14;95.55;101312.59;4878750;29;45611;-76
2021/06/23 10:39:33;;;;;;;;;26.25;24.50;;;;;16.15;95.80;101306.31;4860851;29;48360;-76
2021/06/23 10:42:01;;;;;;;;;28.50;26.75;;;;;16.22;95.50;101321.56;4878047;29;46217;-78
2021/06/23 10:44:43;;;;;;;;;27.50;27.25;;;;;16.23;95.61;101317.94;4877631;29;45885;-75
2021/06/23 10:47:27;;;;;;;;;33.50;30.00;;;;;16.28;95.61;101326.34;4877886;29;45938;-74
2021/06/23 10:49:54;;;;;;;;;29.75;28.25;;;;;16.26;95.33;101322.13;4877618;29;46613;-75
2021/06/23 10:52:20;;;;;;;;;33.00;28.25;;;;;16.28;95.65;101323.69;4878139;29;46087;-77
2021/06/23 10:54:59;;;;;;;;;30.75;28.25;;;;;16.23;95.90;101325.03;4878212;29;45503;-75
2021/06/23 10:57:40;;;;;;;;;34.00;31.25;;;;;16.29;96.10;101333.31;4878221;29;45694;-81
2021/06/23 11:00:12;;;;;;;;;29.75;27.75;;;;;16.29;95.82;101335.09;4877641;29;47592;-79
2021/06/23 11:02:40;;;;;;;;;30.25;26.50;;;;;16.31;95.93;101336.66;4878077;29;46289;-80
2021/06/23 11:05:09;;;;;;;;;31.50;29.00;;;;;16.32;95.84;101338.31;4878233;29;45944;-80
2021/06/23 11:07:46;;;;;;;;;31.00;28.75;;;;;16.33;95.85;101336.53;4861125;29;45835;-78
2021/06/23 11:10:18;;;;;;;;;34.75;29.50;;;;;16.35;95.74;101343.38;4878035;29;46590;-78
2021/06/23 11:12:47;;;;;;;;;31.25;28.25;;;;;16.36;95.66;101341.53;4878476;29;46005;-77
2021/06/23 11:15:16;;;;;;;;;28.75;28.00;;;;;16.37;95.83;101333.50;4878043;29;45602;-79
2021/06/23 11:17:42;;;;;;;;;32.00;30.50;;;;;16.32;95.85;101335.69;4878367;29;45572;-81
2021/06/23 11:20:20;;;;;;;;;32.25;28.00;;;;;16.42;95.75;101348.13;4877852;29;45575;-78
2021/06/23 11:22:49;;;;;;;;;30.75;27.50;;;;;16.40;95.42;101343.00;4876711;29;47508;-77
2021/06/23 11:25:25;;;;;;;;;34.75;30.50;;;;;16.44;95.70;101346.19;4878073;29;45798;-81
2021/06/23 11:28:26;;;;;;;;;29.75;29.00;;;;;16.46;95.93;101349.56;4862249;29;45610;-79
2021/06/23 11:30:52;;;;;;;;;28.25;27.00;;;;;16.44;95.45;101348.84;4819824;29;46611;-81
2021/06/23 11:33:29;;;;;;;;;24.25;23.00;;;;;16.48;95.67;101353.75;4804436;29;47778;-79
2021/06/23 11:35:59;;;;;;;;;30.50;28.00;;;;;16.50;95.62;101358.91;4819719;29;45874;-78
2021/06/23 11:38:26;;;;;;;;;30.50;27.25;;;;;16.37;95.55;101336.13;4821279;29;46117;-80
2021/06/23 11:40:53;;;;;;;;;32.00;29.00;;;;;16.47;95.73;101357.34;4823533;29;45831;-79
2021/06/23 11:43:19;;;;;;;;;28.00;26.75;;;;;16.48;95.88;101355.56;4822361;29;46341;-79
2021/06/23 11:45:45;;;;;;;;;26.25;25.25;;;;;16.51;95.58;101371.19;4823428;29;45808;-77
2021/06/23 11:48:11;;;;;;;;;28.50;27.00;;;;;16.49;95.71;101362.53;4807634;29;45816;-79
2021/06/23 11:50:40;;;;;;;;;26.25;23.75;;;;;16.38;95.62;101345.75;4822619;29;46330;-83
2021/06/23 11:53:09;;;;;;;;;27.50;25.00;;;;;16.51;96.01;101363.25;4823239;29;46305;-81
2021/06/23 11:55:34;;;;;;;;;27.50;27.25;;;;;16.50;95.50;101358.91;4823925;29;46087;-76
2021/06/23 11:58:01;;;;;;;;;24.00;23.00;;;;;16.53;95.37;101374.53;4824417;29;45973;-78
2021/06/23 12:00:28;;;;;;;;;31.25;27.00;;;;;16.51;96.01;101366.75;4823732;29;45695;-81
2021/06/23 12:02:55;;;;;;;;;23.00;22.00;;;;;16.53;96.11;101363.94;4823565;29;46443;-82
2021/06/23 12:05:21;;;;;;;;;27.00;24.50;;;;;16.53;95.74;101364.78;4865076;29;45716;-81
2021/06/23 12:07:47;;;;;;;;;24.75;24.00;;;;;16.47;95.58;101354.72;4884662;29;45651;-81
2021/06/23 12:10:13;;;;;;;;;26.25;24.00;;;;;16.51;95.72;101345.56;4886079;29;46449;-80
2021/06/23 12:12:39;;;;;;;;;20.50;19.75;;;;;16.42;95.53;101335.75;4886693;29;46190;-79
2021/06/23 12:15:08;;;;;;;;;26.50;23.25;;;;;16.56;95.74;101356.59;4884865;29;45818;-78
2021/06/23 12:17:34;;;;;;;;;25.75;23.75;;;;;16.53;95.83;101356.00;4885659;29;45736;-78
2021/06/23 12:23:21;;;;;;;;;25.75;24.00;;;;;16.50;95.99;101350.97;4880560;29;46105;-81
2021/06/23 12:25:48;;;;;;;;;25.25;24.00;;;;;16.53;95.87;101362.13;4881193;29;45640;-79
2021/06/23 12:28:15;;;;;;;;;24.75;23.50;;;;;16.60;95.94;101370.44;4881316;29;45658;-77
2021/06/23 12:30:42;;;;;;;;;24.50;24.50;;;;;16.61;95.61;101358.88;4880917;29;46002;-76
2021/06/23 12:33:11;;;;;;;;;24.25;23.75;;;;;16.61;95.80;101365.03;4863381;29;47118;-78
2021/06/23 12:35:42;;;;;;;;;26.50;25.00;;;;;16.57;95.84;101358.25;4864486;29;45657;-78
2021/06/23 12:38:10;;;;;;;;;6.25;5.00;;;;;16.48;95.62;101339.69;4880753;29;45725;-78
2021/06/23 12:40:36;;;;;;;;;29.25;25.75;;;;;16.60;95.76;101360.69;4880514;29;45527;-77
2021/06/23 12:43:02;;;;;;;;;28.75;26.75;;;;;16.61;95.76;101357.09;4880327;29;46184;-78
2021/06/23 12:45:28;;;;;;;;;24.75;22.50;;;;;16.16;95.78;101273.63;4880570;29;45798;-81
2021/06/23 12:47:53;;;;;;;;;29.75;28.25;;;;;16.57;95.75;101338.94;4880923;29;45711;-81
2021/06/23 12:50:19;;;;;;;;;29.50;27.00;;;;;16.52;96.05;101341.13;4880198;29;46176;-81
2021/06/23 12:52:49;;;;;;;;;24.25;23.00;;;;;16.67;95.60;101356.56;4881004;29;45873;-81
2021/06/23 12:55:18;;;;;;;;;26.00;24.50;;;;;16.65;95.90;101342.63;4880571;29;45659;-80
2021/06/23 12:57:44;;;;;;;;;26.50;24.50;;;;;16.67;95.91;101343.34;4880844;29;45493;-78
2021/06/23 13:00:11;;;;;;;;;26.50;24.75;;;;;16.71;95.77;101347.41;4880487;29;46453;-80
2021/06/23 13:02:37;;;;;;;;;30.25;29.75;;;;;16.70;95.29;101332.47;4880257;29;45844;-79
2021/06/23 13:08:25;;;;;;;;;27.75;26.25;;;;;16.78;95.58;101343.28;4880216;29;45627;-77
2021/06/23 13:10:50;;;;;;;;;27.75;25.00;;;;;16.72;95.53;101330.56;4862868;29;47318;-79
2021/06/23 13:13:15;;;;;;;;;31.00;28.25;;;;;16.77;95.73;101338.94;4880698;29;45929;-78
2021/06/23 13:15:41;;;;;;;;;32.50;27.75;;;;;16.81;95.80;101336.03;4880697;29;45859;-81
2021/06/23 13:18:07;;;;;;;;;26.25;26.25;;;;;16.69;95.49;101322.03;4880558;29;45751;-80
2021/06/23 13:20:35;;;;;;;;;32.50;30.00;;;;;16.84;95.45;101333.13;4879845;29;46814;-81
2021/06/23 13:23:00;;;;;;;;;32.50;31.00;;;;;16.86;95.46;101329.34;4880387;29;45858;-82
2021/06/23 13:25:26;;;;;;;;;28.75;27.25;;;;;16.81;95.46;101320.13;4878883;29;45741;-81
2021/06/23 13:27:51;;;;;;;;;32.00;28.00;;;;;16.90;95.64;101340.50;4880294;29;45662;-81
2021/06/23 13:30:18;;;;;;;;;32.50;29.25;;;;;16.86;95.68;101329.34;4879544;29;46822;-81
2021/06/23 13:32:44;;;;;;;;;29.25;26.75;;;;;16.86;95.86;101323.22;4879788;29;46273;-80
2021/06/23 13:38:31;;;;;;;;;28.25;25.75;;;;;16.95;95.56;101331.22;4879697;29;45517;-82
2021/06/23 13:40:59;;;;;;;;;30.75;27.25;;;;;16.90;95.60;101329.94;4879102;29;46300;-82
2021/06/23 13:43:25;;;;;;;;;29.75;28.25;;;;;16.88;95.74;101321.28;4879659;29;45654;-81
2021/06/23 13:45:51;;;;;;;;;26.00;24.50;;;;;16.98;95.46;101348.66;4880013;29;45575;-80
2021/06/23 13:48:17;;;;;;;;;31.00;27.75;;;;;16.96;95.73;101342.63;4879792;29;45669;-79
2021/06/23 13:50:43;;;;;;;;;28.50;27.75;;;;;17.01;95.80;101335.97;4881149;29;46386;-79
2021/06/23 13:53:08;;;;;;;;;35.00;30.50;;;;;17.03;95.45;101346.44;4884279;29;46316;-78
2021/06/23 13:55:36;;;;;;;;;34.25;31.00;;;;;17.05;95.67;101347.16;4883749;29;45580;-80
2021/06/23 13:58:03;;;;;;;;;33.75;30.00;;;;;16.92;95.81;101328.84;4880816;29;45664;-78
2021/06/23 14:00:33;;;;;;;;;31.75;30.00;;;;;17.06;95.36;101346.16;4879761;29;45630;-77
2021/06/23 14:03:00;;;;;;;;;29.25;28.00;;;;;17.04;95.65;101341.03;4879427;29;46305;-80
2021/06/23 14:08:47;;;;;;;;;38.25;33.00;;;;;17.03;95.67;101333.22;4881215;29;45636;-80
2021/06/23 14:11:12;;;;;;;;;31.75;29.50;;;;;17.09;95.73;101356.50;4880961;29;45607;-77
2021/06/23 14:13:38;;;;;;;;;33.00;28.75;;;;;17.02;95.97;101347.41;4880694;29;46262;-80
2021/06/23 14:16:04;;;;;;;;;32.75;29.25;;;;;17.07;95.86;101353.16;4883022;29;45704;-77
2021/06/23 14:18:30;;;;;;;;;31.50;29.50;;;;;17.07;95.88;101348.69;4884923;29;45657;-79
2021/06/23 14:20:56;;;;;;;;;35.75;32.00;;;;;17.10;95.86;101347.59;4884813;29;45559;-83
2021/06/23 14:23:21;;;;;;;;;34.00;32.25;;;;;17.10;95.47;101355.53;4883907;29;46294;-80
2021/06/23 14:25:47;;;;;;;;;37.00;30.50;;;;;17.03;95.50;101330.56;4884186;29;45490;-78
2021/06/23 14:28:12;;;;;;;;;34.00;29.75;;;;;17.09;95.35;101345.91;4882409;29;45719;-80
2021/06/23 14:30:37;;;;;;;;;33.00;30.00;;;;;17.08;95.44;101346.88;4879813;29;46581;-81
2021/06/23 14:33:03;;;;;;;;;39.25;33.00;;;;;17.11;95.41;101346.63;4879893;29;45693;-80
2021/06/23 14:38:50;;;;;;;;;32.75;30.25;;;;;17.10;95.75;101344.94;4879368;29;45687;-77
2021/06/23 14:41:15;;;;;;;;;31.00;28.50;;;;;17.08;95.85;101337.13;4878853;29;45788;-80
2021/06/23 14:43:40;;;;;;;;;34.00;31.75;;;;;17.10;95.51;101343.16;4878673;29;46392;-79
2021/06/23 14:46:07;;;;;;;;;32.75;29.50;;;;;17.06;95.36;101338.22;4877473;29;45603;-80
2021/06/23 14:48:33;;;;;;;;;36.75;31.00;;;;;17.06;95.57;101323.19;4878646;29;45595;-80
2021/06/23 14:50:58;;;;;;;;;36.00;32.75;;;;;17.13;95.44;101347.31;4876995;29;47328;-80
2021/06/23 14:53:23;;;;;;;;;31.75;26.00;;;;;17.10;95.91;101327.25;4878886;29;46110;-81
2021/06/23 14:55:49;;;;;;;;;32.00;30.50;;;;;17.16;95.54;101325.88;4879230;29;45665;-80
2021/06/23 14:58:14;;;;;;;;;35.50;31.00;;;;;17.12;95.80;101320.00;4880250;29;45732;-81
2021/06/23 15:00:40;;;;;;;;;39.50;32.00;;;;;17.23;95.82;101339.41;4879374;29;46249;-82
2021/06/23 15:03:05;;;;;;;;;34.75;31.00;;;;;17.25;95.88;101329.53;4878902;29;45918;-80
2021/06/23 15:08:52;;;;;;;;;39.25;31.75;;;;;17.30;95.33;101333.44;4878340;29;45592;-83
2021/06/23 15:11:18;;;;;;;;;31.25;29.25;;;;;17.32;95.86;101331.53;4878132;29;46769;-84
2021/06/23 15:13:43;;;;;;;;;33.00;31.25;;;;;17.32;95.59;101323.56;4876591;29;45591;-83
2021/06/23 15:16:08;;;;;;;;;30.25;28.50;;;;;17.34;95.89;101318.97;4878180;29;45643;-82
2021/06/23 15:18:34;;;;;;;;;34.75;30.75;;;;;17.37;95.82;101324.00;4878365;29;45672;-83
2021/06/23 15:24:21;;;;;;;;;33.00;28.50;;;;;17.35;95.42;101325.09;4876970;29;46087;-79
2021/06/23 15:26:47;;;;;;;;;35.50;32.75;;;;;17.37;95.67;101329.31;4877971;29;45589;-83
2021/06/23 15:29:12;;;;;;;;;34.50;30.25;;;;;17.38;95.39;101336.25;4878134;29;45569;-82
2021/06/23 15:31:38;;;;;;;;;32.25;31.00;;;;;17.40;95.64;101334.31;4877761;29;46302;-83
2021/06/23 15:34:03;;;;;;;;;34.25;30.50;;;;;17.40;95.37;101331.66;4878674;29;45549;-79
2021/06/23 15:36:28;;;;;;;;;31.50;30.00;;;;;17.35;95.34;101315.34;4879888;29;45551;-81
2021/06/23 15:38:54;;;;;;;;;33.75;31.50;;;;;17.41;95.87;101327.22;4880811;29;45516;-79
2021/06/23 15:41:22;;;;;;;;;32.00;30.00;;;;;17.38;95.52;101317.72;4879197;29;45641;-84
2021/06/23 15:43:48;;;;;;;;;31.50;29.50;;;;;17.39;95.25;101321.19;4877799;29;46080;-80
2021/06/23 15:46:14;;;;;;;;;29.25;28.50;;;;;17.24;95.49;101311.97;4877923;29;45638;-82
2021/06/23 15:48:41;;;;;;;;;29.50;27.75;;;;;17.35;95.90;101327.75;4861469;29;45582;-83
2021/06/23 15:54:28;;;;;;;;;32.25;29.25;;;;;17.38;95.27;101344.19;4875953;29;45741;-82
2021/06/23 15:56:53;;;;;;;;;32.25;29.00;;;;;17.29;95.27;101326.47;4860419;29;45738;-81
2021/06/23 15:59:19;;;;;;;;;30.50;27.00;;;;;17.29;95.31;101325.63;4877508;29;45747;-80
2021/06/23 16:01:44;;;;;;;;;33.00;28.50;;;;;17.32;95.37;101338.63;4877558;29;46709;-82
2021/06/23 16:04:09;;;;;;;;;32.00;28.25;;;;;17.29;95.92;101323.81;4877156;29;46750;-79
2021/06/23 16:06:35;;;;;;;;;29.00;27.00;;;;;17.35;95.41;101333.88;4877288;29;45669;-82
2021/06/23 16:09:02;;;;;;;;;35.00;30.00;;;;;17.28;95.52;101310.72;4877451;29;45552;-81
2021/06/23 16:11:28;;;;;;;;;29.25;28.25;;;;;17.37;95.48;101328.47;4877515;29;46450;-80
2021/06/23 16:13:53;;;;;;;;;29.75;28.75;;;;;17.29;95.38;101318.53;4876980;29;46219;-81
2021/06/23 16:16:19;;;;;;;;;28.75;27.00;;;;;17.34;95.64;101320.75;4876347;29;45785;-80
2021/06/23 16:18:44;;;;;;;;;32.00;29.50;;;;;17.31;95.88;101313.09;4877770;29;45513;-81
2021/06/23 16:24:33;;;;;;;;;34.75;30.75;;;;;17.33;95.22;101319.94;4881234;29;46019;-81
2021/06/23 16:26:58;;;;;;;;;29.50;28.50;;;;;17.36;95.30;101327.63;4870731;29;45839;-80
2021/06/23 16:29:24;;;;;;;;;35.00;30.00;;;;;17.40;95.42;101333.47;4883395;29;45694;-81
2021/06/23 16:31:49;;;;;;;;;32.00;29.00;;;;;17.40;95.66;101333.47;4887209;29;45588;-82
2021/06/23 16:34:16;;;;;;;;;39.00;32.00;;;;;17.33;95.80;101322.56;4887074;29;45699;-79
2021/06/23 16:40:05;;;;;;;;;31.25;30.00;;;;;17.34;95.43;101328.72;4882614;29;45662;-81